createdAt,value
2022-09-13T00:02:34.398Z,48.37
2022-09-13T00:05:20.211Z,48.41
2022-09-13T00:08:06.731Z,48.37
2022-09-13T00:10:52.596Z,48.49
2022-09-13T00:13:38.463Z,48.53
2022-09-13T00:16:27.131Z,48.47
2022-09-13T00:19:13.000Z,48.51
2022-09-13T00:21:58.898Z,48.42
2022-09-13T00:24:44.596Z,48.35
2022-09-13T00:27:30.529Z,48.48
2022-09-13T00:30:16.573Z,48.52
2022-09-13T00:33:04.989Z,48.55
2022-09-13T00:35:51.013Z,48.36
2022-09-13T00:38:38.459Z,48.33
2022-09-13T00:41:24.068Z,48.42
2022-09-13T00:45:05.777Z,48.60
2022-09-13T00:48:01.548Z,48.54
2022-09-13T00:50:54.630Z,48.51
2022-09-13T00:53:44.588Z,48.46
2022-09-13T00:56:37.899Z,48.55
2022-09-13T00:59:29.100Z,48.42
2022-09-13T01:02:15.182Z,48.53
2022-09-13T01:05:01.415Z,48.54
2022-09-13T01:07:47.912Z,48.61
2022-09-13T01:10:36.061Z,48.54
2022-09-13T01:13:23.805Z,48.67
2022-09-13T01:16:09.863Z,48.68
2022-09-13T01:18:55.839Z,48.81
2022-09-13T01:21:57.088Z,48.90
2022-09-13T01:25:16.107Z,48.94
2022-09-13T01:28:08.069Z,48.86
2022-09-13T01:31:02.644Z,48.90
2022-09-13T01:33:51.238Z,48.82
2022-09-13T01:37:04.213Z,49.05
2022-09-13T01:40:17.555Z,49.26
2022-09-13T01:43:03.202Z,48.92
2022-09-13T01:46:07.203Z,49.34
2022-09-13T01:49:02.320Z,49.13
2022-09-13T01:51:51.798Z,49.14
2022-09-13T01:54:56.442Z,49.10
2022-09-13T01:57:52.989Z,49.27
2022-09-13T02:00:57.398Z,49.10
2022-09-13T02:04:09.164Z,49.14
2022-09-13T02:07:17.741Z,49.03
2022-09-13T02:10:12.425Z,49.29
2022-09-13T02:12:59.621Z,49.20
2022-09-13T02:15:48.370Z,49.18
2022-09-13T02:18:49.623Z,49.25
2022-09-13T02:22:24.864Z,49.28
2022-09-13T02:25:14.642Z,49.37
2022-09-13T02:28:03.718Z,49.57
2022-09-13T02:30:52.345Z,49.49
2022-09-13T02:33:42.485Z,49.41
2022-09-13T02:36:31.767Z,49.31
2022-09-13T02:39:18.627Z,49.40
2022-09-13T02:42:27.642Z,49.34
2022-09-13T02:45:22.611Z,49.56
2022-09-13T02:48:21.100Z,49.43
2022-09-13T02:51:15.319Z,49.44
2022-09-13T02:54:10.486Z,49.63
2022-09-13T02:57:01.148Z,49.55
2022-09-13T02:59:48.584Z,49.60
2022-09-13T03:02:35.375Z,49.59
2022-09-13T03:05:21.471Z,49.50
2022-09-13T03:08:10.579Z,49.42
2022-09-13T03:10:56.361Z,49.44
2022-09-13T03:14:17.432Z,49.42
2022-09-13T03:17:22.111Z,49.56
2022-09-13T03:20:12.627Z,49.45
2022-09-13T03:23:22.497Z,49.40
2022-09-13T03:26:14.789Z,49.72
2022-09-13T03:29:11.672Z,49.68
2022-09-13T03:32:28.012Z,49.93
2022-09-13T03:35:33.828Z,49.61
2022-09-13T03:38:24.933Z,49.68
2022-09-13T03:41:17.311Z,49.58
2022-09-13T03:44:07.242Z,49.48
2022-09-13T03:46:57.453Z,49.46
2022-09-13T03:49:44.570Z,49.20
2022-09-13T03:52:30.991Z,49.46
2022-09-13T03:55:19.955Z,49.36
2022-09-13T03:58:06.314Z,49.70
2022-09-13T04:00:54.390Z,49.81
2022-09-13T04:03:40.347Z,49.74
2022-09-13T04:06:26.205Z,49.88
2022-09-13T04:09:12.052Z,49.77
2022-09-13T04:11:58.073Z,49.89
2022-09-13T04:14:44.118Z,49.89
2022-09-13T04:17:30.034Z,49.83
2022-09-13T04:20:15.962Z,49.70
2022-09-13T04:23:01.879Z,49.64
2022-09-13T04:25:47.914Z,49.95
2022-09-13T04:28:33.854Z,49.88
2022-09-13T04:31:19.601Z,49.91
2022-09-13T04:34:06.416Z,49.70
2022-09-13T04:36:53.137Z,49.98
2022-09-13T04:39:39.352Z,50.01
2022-09-13T04:42:25.169Z,49.86
2022-09-13T04:45:11.129Z,49.68
2022-09-13T04:47:57.176Z,49.69
2022-09-13T04:50:44.939Z,49.97
2022-09-13T04:53:31.793Z,49.98
2022-09-13T04:56:20.092Z,49.76
2022-09-13T04:59:05.921Z,49.99
2022-09-13T05:01:51.642Z,49.79
2022-09-13T05:04:37.271Z,49.94
2022-09-13T05:07:23.018Z,50.06
2022-09-13T05:10:09.520Z,49.82
2022-09-13T05:12:55.776Z,49.88
2022-09-13T05:15:41.780Z,49.87
2022-09-13T05:18:32.049Z,49.91
2022-09-13T05:21:18.783Z,49.88
2022-09-13T05:24:04.920Z,49.86
2022-09-13T05:26:50.886Z,49.94
2022-09-13T05:29:36.538Z,50.08
2022-09-13T05:32:22.596Z,49.94
2022-09-13T05:35:09.470Z,49.99
2022-09-13T05:37:55.186Z,49.78
2022-09-13T05:40:41.126Z,50.18
2022-09-13T05:43:29.308Z,50.02
2022-09-13T05:46:17.600Z,50.31
2022-09-13T05:49:03.985Z,50.09
2022-09-13T05:51:49.780Z,49.90
2022-09-13T05:54:37.090Z,50.06
2022-09-13T05:57:23.056Z,50.04
2022-09-13T06:00:09.762Z,49.84
2022-09-13T06:03:13.385Z,50.22
2022-09-13T06:05:59.783Z,49.82
2022-09-13T06:08:46.653Z,49.77
2022-09-13T06:11:32.846Z,49.87
2022-09-13T06:14:21.430Z,49.89
2022-09-13T06:17:08.441Z,50.11
2022-09-13T06:20:01.600Z,49.96
2022-09-13T06:22:49.489Z,50.09
2022-09-13T06:25:35.370Z,50.25
2022-09-13T06:28:21.535Z,50.23
2022-09-13T06:31:12.905Z,50.12
2022-09-13T06:34:02.559Z,49.97
2022-09-13T06:36:48.286Z,50.13
2022-09-13T06:39:34.344Z,50.14
2022-09-13T06:42:20.264Z,50.04
2022-09-13T06:45:07.108Z,50.20
2022-09-13T06:47:55.950Z,49.96
2022-09-13T06:50:42.128Z,50.21
2022-09-13T06:53:29.046Z,50.04
2022-09-13T06:56:17.230Z,49.89
2022-09-13T06:59:06.376Z,50.00
2022-09-13T07:01:52.457Z,49.77
2022-09-13T07:04:38.227Z,49.88
2022-09-13T07:07:24.224Z,49.69
2022-09-13T07:10:10.259Z,49.76
2022-09-13T07:12:56.001Z,49.72
2022-09-13T07:15:41.919Z,49.62
2022-09-13T07:18:27.517Z,49.65
2022-09-13T07:21:13.239Z,49.73
2022-09-13T07:23:59.032Z,49.62
2022-09-13T07:26:46.713Z,49.56
2022-09-13T07:29:32.771Z,49.29
2022-09-13T07:32:19.743Z,49.55
2022-09-13T07:35:08.183Z,49.17
2022-09-13T07:37:54.245Z,49.25
2022-09-13T07:40:40.219Z,48.95
2022-09-13T07:43:26.467Z,49.30
2022-09-13T07:46:13.548Z,49.08
2022-09-13T07:49:01.027Z,49.38
2022-09-13T07:51:47.183Z,49.35
2022-09-13T07:54:34.683Z,49.49
2022-09-13T07:57:20.799Z,49.16
2022-09-13T08:00:07.583Z,49.12
2022-09-13T08:02:57.399Z,49.27
2022-09-13T08:05:43.377Z,49.05
2022-09-13T08:08:29.905Z,48.85
2022-09-13T08:11:28.234Z,48.54
2022-09-13T08:14:16.203Z,48.43
2022-09-13T08:17:02.136Z,48.21
2022-09-13T08:19:47.938Z,48.16
2022-09-13T08:22:33.492Z,48.11
2022-09-13T08:25:19.293Z,48.49
2022-09-13T08:28:10.852Z,48.58
2022-09-13T08:30:56.680Z,48.30
2022-09-13T08:33:47.461Z,48.17
2022-09-13T08:36:33.457Z,48.15
2022-09-13T08:39:19.684Z,48.29
2022-09-13T08:42:25.169Z,47.97
2022-09-13T08:45:11.127Z,48.04
2022-09-13T08:48:19.209Z,47.70
2022-09-13T08:51:08.263Z,47.79
2022-09-13T08:53:54.548Z,47.69
2022-09-13T08:56:53.244Z,47.29
2022-09-13T08:59:54.832Z,46.92
2022-09-13T09:03:16.702Z,46.88
2022-09-13T09:06:02.697Z,46.63
2022-09-13T09:09:00.268Z,46.36
2022-09-13T09:11:54.349Z,45.73
2022-09-13T09:14:44.440Z,45.78
2022-09-13T09:17:46.778Z,45.62
2022-09-13T09:20:32.872Z,45.60
2022-09-13T09:23:22.019Z,45.09
2022-09-13T09:26:22.823Z,44.79
2022-09-13T09:29:36.186Z,44.63
2022-09-13T09:33:03.794Z,44.38
2022-09-13T09:36:05.733Z,44.06
2022-09-13T09:38:52.076Z,44.14
2022-09-13T09:41:38.512Z,44.00
2022-09-13T09:44:27.865Z,43.34
2022-09-13T09:47:20.400Z,43.26
2022-09-13T09:50:21.175Z,43.20
2022-09-13T09:53:27.023Z,42.85
2022-09-13T09:56:24.393Z,42.63
2022-09-13T09:59:27.152Z,42.55
2022-09-13T10:02:20.544Z,42.53
2022-09-13T10:05:06.995Z,42.34
2022-09-13T10:08:05.290Z,41.94
2022-09-13T10:10:57.696Z,41.57
2022-09-13T10:14:03.149Z,41.59
2022-09-13T10:17:08.959Z,41.55
2022-09-13T10:19:59.425Z,41.24
2022-09-13T10:22:45.558Z,41.06
2022-09-13T10:25:31.945Z,41.00
2022-09-13T10:28:19.760Z,40.73
2022-09-13T10:31:14.793Z,40.81
2022-09-13T10:34:07.804Z,40.64
2022-09-13T10:37:03.627Z,40.45
2022-09-13T10:40:07.475Z,39.82
2022-09-13T10:42:56.311Z,39.90
2022-09-13T10:45:42.994Z,39.33
2022-09-13T10:48:31.002Z,39.31
2022-09-13T10:51:36.879Z,39.05
2022-09-13T10:54:26.010Z,38.83
2022-09-13T10:57:32.593Z,38.69
2022-09-13T11:00:25.693Z,38.72
2022-09-13T11:03:53.000Z,38.41
2022-09-13T11:07:01.646Z,38.05
2022-09-13T11:10:00.566Z,38.17
2022-09-13T11:12:55.607Z,37.99
2022-09-13T11:15:58.419Z,37.79
2022-09-13T11:19:09.047Z,37.34
2022-09-13T11:22:15.163Z,37.20
2022-09-13T11:25:10.723Z,36.83
2022-09-13T11:28:04.206Z,36.75
2022-09-13T11:31:20.140Z,36.42
2022-09-13T11:34:25.055Z,36.35
2022-09-13T11:37:14.427Z,36.08
2022-09-13T11:40:14.258Z,36.06
2022-09-13T11:43:41.339Z,35.61
2022-09-13T11:46:52.517Z,35.56
2022-09-13T11:49:48.699Z,35.32
2022-09-13T11:53:04.713Z,35.18
2022-09-13T11:56:07.031Z,34.51
2022-09-13T11:59:03.131Z,33.89
2022-09-13T12:01:53.529Z,33.85
2022-09-13T12:05:18.070Z,33.38
2022-09-13T12:08:10.113Z,32.28
2022-09-13T12:11:15.393Z,32.25
2022-09-13T12:14:05.245Z,31.65
2022-09-13T12:16:55.130Z,30.73
2022-09-13T12:19:45.503Z,30.28
2022-09-13T12:22:34.398Z,30.03
2022-09-13T12:25:25.813Z,30.14
2022-09-13T12:28:24.794Z,29.61
2022-09-13T12:31:16.318Z,29.71
2022-09-13T12:34:06.443Z,29.47
2022-09-13T12:36:58.564Z,29.66
2022-09-13T12:40:12.306Z,29.23
2022-09-13T12:43:08.694Z,29.59
2022-09-13T12:46:28.060Z,29.23
2022-09-13T12:49:19.915Z,29.44
2022-09-13T12:52:14.085Z,30.13
2022-09-13T12:55:23.757Z,30.05
2022-09-13T12:58:43.927Z,30.05
2022-09-13T13:01:31.017Z,30.24
2022-09-13T13:04:20.834Z,30.17
2022-09-13T13:07:16.888Z,30.19
2022-09-13T13:10:03.301Z,30.30
2022-09-13T13:12:49.414Z,30.34
2022-09-13T13:15:38.616Z,30.20
2022-09-13T13:18:31.882Z,30.37
2022-09-13T13:21:28.900Z,30.12
2022-09-13T13:24:18.608Z,30.30
2022-09-13T13:27:36.583Z,29.83
2022-09-13T13:30:41.057Z,30.02
2022-09-13T13:33:29.287Z,30.50
2022-09-13T13:36:22.722Z,30.53
2022-09-13T13:39:26.214Z,30.67
2022-09-13T13:42:36.266Z,30.07
2022-09-13T13:45:28.198Z,31.00
2022-09-13T13:48:15.618Z,30.53
2022-09-13T13:51:11.899Z,30.63
2022-09-13T13:54:06.410Z,30.58
2022-09-13T13:56:52.272Z,30.78
2022-09-13T13:59:38.758Z,30.65
2022-09-13T14:02:42.946Z,30.10
2022-09-13T14:06:03.211Z,30.63
2022-09-13T14:09:33.002Z,30.51
2022-09-13T14:12:56.576Z,30.18
2022-09-13T14:15:57.166Z,30.11
2022-09-13T14:19:37.239Z,30.40
2022-09-13T14:22:31.998Z,30.24
2022-09-13T14:25:22.524Z,30.22
2022-09-13T14:28:08.710Z,30.59
2022-09-13T14:30:59.285Z,30.68
2022-09-13T14:33:45.275Z,30.59
2022-09-13T14:36:31.271Z,30.99
2022-09-13T14:39:17.377Z,30.96
2022-09-13T14:42:14.455Z,30.73
2022-09-13T14:45:00.498Z,30.85
2022-09-13T14:48:01.778Z,31.44
2022-09-13T14:50:52.416Z,31.24
2022-09-13T14:53:40.797Z,31.40
2022-09-13T14:56:51.347Z,31.85
2022-09-13T14:59:52.594Z,32.24
2022-09-13T15:02:40.146Z,31.84
2022-09-13T15:05:30.101Z,32.01
2022-09-13T15:08:34.083Z,31.47
2022-09-13T15:11:37.965Z,32.49
2022-09-13T15:14:37.342Z,32.27
2022-09-13T15:17:23.193Z,32.57
2022-09-13T15:20:13.079Z,32.55
2022-09-13T15:22:58.983Z,32.60
2022-09-13T15:25:56.969Z,32.52
2022-09-13T15:28:49.067Z,32.76
2022-09-13T15:31:35.705Z,32.61
2022-09-13T15:34:25.723Z,32.54
2022-09-13T15:37:13.652Z,32.77
2022-09-13T15:40:21.123Z,32.75
2022-09-13T15:43:07.200Z,33.24
2022-09-13T15:45:53.335Z,33.17
2022-09-13T15:48:39.973Z,32.90
2022-09-13T15:51:26.143Z,33.16
2022-09-13T15:54:16.179Z,33.08
2022-09-13T15:57:02.248Z,33.24
2022-09-13T15:59:48.300Z,33.37
2022-09-13T16:02:35.731Z,33.47
2022-09-13T16:05:21.757Z,33.30
2022-09-13T16:08:11.194Z,33.47
2022-09-13T16:11:05.034Z,33.41
2022-09-13T16:13:51.057Z,33.59
2022-09-13T16:16:37.031Z,33.91
2022-09-13T16:19:26.345Z,33.80
2022-09-13T16:22:12.956Z,33.95
2022-09-13T16:24:59.141Z,34.11
2022-09-13T16:27:45.804Z,34.16
2022-09-13T16:30:33.029Z,34.32
2022-09-13T16:33:19.815Z,34.47
2022-09-13T16:36:06.005Z,34.46
2022-09-13T16:38:51.903Z,34.77
2022-09-13T16:41:40.224Z,34.78
2022-09-13T16:44:26.007Z,35.00
2022-09-13T16:47:12.111Z,35.09
2022-09-13T16:49:58.040Z,35.24
2022-09-13T16:52:44.206Z,35.49
2022-09-13T16:55:30.328Z,35.56
2022-09-13T16:58:16.249Z,35.81
2022-09-13T17:01:10.459Z,36.20
2022-09-13T17:03:57.525Z,36.15
2022-09-13T17:06:43.235Z,36.25
2022-09-13T17:09:30.872Z,36.43
2022-09-13T17:12:16.971Z,36.48
2022-09-13T17:15:02.975Z,36.78
2022-09-13T17:17:49.080Z,36.80
2022-09-13T17:20:34.878Z,36.89
2022-09-13T17:23:20.917Z,37.29
2022-09-13T17:26:07.649Z,37.45
2022-09-13T17:28:53.497Z,37.40
2022-09-13T17:31:40.242Z,37.69
2022-09-13T17:34:26.362Z,37.85
2022-09-13T17:37:12.656Z,37.85
2022-09-13T17:39:58.843Z,37.96
2022-09-13T17:42:45.304Z,38.16
2022-09-13T17:45:31.327Z,38.27
2022-09-13T17:48:17.118Z,38.46
2022-09-13T17:51:30.176Z,39.02
2022-09-13T17:54:16.370Z,38.67
2022-09-13T17:57:05.725Z,38.97
2022-09-13T17:59:52.319Z,39.05
2022-09-13T18:02:38.794Z,39.08
2022-09-13T18:05:24.809Z,39.21
2022-09-13T18:08:10.827Z,39.38
2022-09-13T18:11:13.638Z,39.77
2022-09-13T18:14:00.892Z,39.40
2022-09-13T18:16:49.310Z,39.68
2022-09-13T18:19:45.754Z,39.80
2022-09-13T18:22:32.650Z,39.88
2022-09-13T18:25:23.465Z,40.17
2022-09-13T18:28:09.735Z,40.25
2022-09-13T18:30:58.274Z,40.10
2022-09-13T18:33:45.436Z,40.49
2022-09-13T18:36:33.498Z,40.61
2022-09-13T18:39:21.895Z,40.55
2022-09-13T18:42:07.941Z,40.95
2022-09-13T18:44:53.888Z,40.81
2022-09-13T18:47:39.837Z,41.10
2022-09-13T18:50:26.434Z,41.11
2022-09-13T18:53:12.224Z,41.16
2022-09-13T18:56:01.357Z,41.29
2022-09-13T18:58:47.759Z,41.38
2022-09-13T19:01:39.836Z,41.56
2022-09-13T19:04:25.789Z,41.39
2022-09-13T19:07:11.989Z,41.76
2022-09-13T19:09:58.186Z,41.93
2022-09-13T19:12:44.152Z,41.96
2022-09-13T19:15:31.167Z,41.92
2022-09-13T19:18:17.162Z,42.16
2022-09-13T19:21:05.314Z,42.18
2022-09-13T19:23:59.471Z,42.15
2022-09-13T19:26:48.934Z,42.09
2022-09-13T19:29:34.942Z,42.37
2022-09-13T19:32:20.975Z,42.24
2022-09-13T19:35:07.423Z,42.46
2022-09-13T19:37:54.182Z,42.66
2022-09-13T19:40:40.243Z,42.62
2022-09-13T19:43:29.660Z,42.70
2022-09-13T19:46:17.398Z,42.71
2022-09-13T19:49:04.444Z,42.79
2022-09-13T19:51:52.192Z,42.92
2022-09-13T19:54:38.289Z,43.02
2022-09-13T19:57:24.381Z,43.05
2022-09-13T20:00:10.714Z,43.21
2022-09-13T20:02:56.952Z,43.20
2022-09-13T20:05:42.990Z,43.50
2022-09-13T20:08:29.156Z,43.54
2022-09-13T20:11:17.945Z,43.52
2022-09-13T20:14:05.731Z,43.59
2022-09-13T20:16:51.803Z,43.71
2022-09-13T20:19:43.827Z,43.79
2022-09-13T20:22:32.376Z,43.83
2022-09-13T20:25:19.097Z,43.90
2022-09-13T20:28:05.879Z,43.84
2022-09-13T20:30:56.562Z,44.13
2022-09-13T20:33:43.609Z,44.10
2022-09-13T20:36:31.436Z,44.07
2022-09-13T20:39:18.283Z,44.14
2022-09-13T20:42:04.254Z,44.16
2022-09-13T20:44:50.358Z,44.20
2022-09-13T20:47:36.620Z,44.24
2022-09-13T20:50:22.504Z,44.34
2022-09-13T20:53:08.440Z,44.17
2022-09-13T20:55:54.585Z,44.31
2022-09-13T20:58:41.509Z,44.71
2022-09-13T21:01:29.749Z,44.72
2022-09-13T21:04:17.576Z,44.77
2022-09-13T21:07:23.186Z,44.90
2022-09-13T21:10:09.412Z,45.12
2022-09-13T21:12:56.269Z,44.96
2022-09-13T21:15:42.190Z,44.98
2022-09-13T21:18:29.910Z,45.27
2022-09-13T21:21:21.798Z,45.27
2022-09-13T21:24:13.345Z,45.27
2022-09-13T21:26:59.373Z,45.29
2022-09-13T21:29:45.004Z,45.36
2022-09-13T21:32:30.829Z,45.40
2022-09-13T21:35:16.770Z,45.50
2022-09-13T21:38:02.508Z,45.59
2022-09-13T21:41:10.433Z,45.64
2022-09-13T21:44:01.786Z,45.56
2022-09-13T21:46:47.612Z,45.56
2022-09-13T21:49:33.547Z,45.62
2022-09-13T21:52:19.898Z,45.62
2022-09-13T21:55:06.110Z,45.71
2022-09-13T21:57:52.222Z,45.67
2022-09-13T22:00:39.687Z,45.63
2022-09-13T22:03:25.400Z,45.65
2022-09-13T22:06:12.191Z,45.92
2022-09-13T22:09:00.304Z,45.71
2022-09-13T22:11:48.035Z,45.79
2022-09-13T22:14:34.114Z,45.88
2022-09-13T22:17:20.014Z,45.95
2022-09-13T22:20:06.261Z,45.97
2022-09-13T22:22:51.883Z,46.14
2022-09-13T22:25:40.944Z,46.17
2022-09-13T22:28:27.246Z,46.16
2022-09-13T22:31:16.897Z,46.45
2022-09-13T22:34:03.441Z,46.25
2022-09-13T22:36:50.143Z,46.26
2022-09-13T22:39:36.248Z,46.30
2022-09-13T22:42:21.899Z,46.00
2022-09-13T22:45:08.828Z,46.50
2022-09-13T22:47:54.722Z,46.18
2022-09-13T22:50:40.722Z,46.35
2022-09-13T22:53:27.003Z,46.63
2022-09-13T22:56:14.623Z,46.45
2022-09-13T22:59:05.490Z,46.40
2022-09-13T23:01:51.572Z,46.42
2022-09-13T23:04:37.430Z,46.41
2022-09-13T23:07:23.330Z,46.45
2022-09-13T23:10:09.095Z,46.36
2022-09-13T23:12:55.862Z,46.64
2022-09-13T23:15:41.834Z,46.48
2022-09-13T23:18:27.581Z,46.55
2022-09-13T23:21:13.478Z,46.67
2022-09-13T23:24:00.784Z,46.77
2022-09-13T23:26:47.236Z,46.83
2022-09-13T23:29:32.971Z,46.70
2022-09-13T23:32:18.678Z,46.48
2022-09-13T23:35:04.728Z,47.15
2022-09-13T23:37:50.670Z,46.71
2022-09-13T23:40:36.685Z,46.75
2022-09-13T23:43:22.202Z,46.73
2022-09-13T23:46:08.060Z,46.84
2022-09-13T23:48:54.033Z,46.99
2022-09-13T23:51:39.991Z,46.79
2022-09-13T23:54:25.883Z,46.80
2022-09-13T23:57:11.663Z,46.78
2022-09-13T23:59:57.446Z,47.09
